Flight Track Log - Related Links

Times and Time Zones

All times are in EDT time to prevent confusion due to time zone crossing. See the TRS587 flight status page for this flight to view local times or setup timezone preferences in your user account.

Time Position Orientation Groundspeed Altitude Reporting Facility
EDT Latitude Longitude Course Direction KTS MPH feet Rate Location/Type
Tue 10:38:15 AM 28.4333 -81.3000 360° North 177 204 800  Level Orlando TRACON
Tue 10:39:03 AM 28.4833 -81.3000 360° North 198 228 2,500 1,761 Climbing Orlando TRACON
Tue 10:40:04 AM 28.5333 -81.3167 344° North 247 284 4,000 1,843 Climbing Orlando TRACON
Tue 10:41:10 AM 28.5833 -81.3833 311° West 289 333 6,400 2,381 Climbing Orlando TRACON
Tue 10:42:10 AM 28.5500 -81.4833 249° West 294 338 9,000 1,990 Climbing Orlando TRACON
Tue 10:44:29 AM 28.4992 -81.7067 256° West 324 373 13,000 1,779 Climbing Jacksonville Center
Tue 10:45:29 AM 28.4731 -81.8158 255° West 341 392 14,900 1,850 Climbing Jacksonville Center
Tue 10:46:29 AM 28.4489 -81.9269 256° West 364 419 16,700 1,500 Climbing Jacksonville Center
Tue 10:47:29 AM 28.4433 -82.0239 266° West 374 430 17,900 1,650 Climbing Jacksonville Center
Tue 10:48:29 AM 28.4483 -82.1606 272° West 387 445 20,000 2,050 Climbing Jacksonville Center
Tue 10:49:29 AM 28.4678 -82.2858 280° West 393 452 22,000 1,700 Climbing Jacksonville Center
Tue 10:50:29 AM 28.4997 -82.4108 286° West 400 460 23,400 1,450 Climbing Jacksonville Center
Tue 10:51:29 AM 28.6000 -82.4764 330° Northwest 383 441 24,900 1,450 Climbing Jacksonville Center
Tue 10:52:29 AM 28.7044 -82.5350 334° Northwest 395 455 26,300 1,400 Climbing Jacksonville Center
Tue 10:53:29 AM 28.8133 -82.5939 335° Northwest 410 472 27,700 1,300 Climbing Jacksonville Center
Tue 10:54:29 AM 28.9219 -82.6578 333° Northwest 427 491 28,900 1,150 Climbing Jacksonville Center
Tue 10:55:29 AM 29.0325 -82.7239 332° Northwest 434 499 30,000 550 Climbing Jacksonville Center
Tue 10:56:29 AM 29.1433 -82.7881 333° Northwest 440 506 30,000  Level Jacksonville Center
Tue 10:57:29 AM 29.2519 -82.8497 334° Northwest 440 506 30,000  Level Jacksonville Center
Tue 10:58:29 AM 29.3667 -82.9139 334° Northwest 447 514 30,000 200 Level Jacksonville Center
Tue 10:59:29 AM 29.4814 -82.9856 331° Northwest 447 514 30,400 900 Climbing Jacksonville Center
Tue 11:00:29 AM 29.5919 -83.0456 335° Northwest 447 514 31,800 1,250 Climbing Jacksonville Center
Tue 11:01:29 AM 29.7089 -83.1006 338° Northwest 447 514 32,900 1,100 Climbing Jacksonville Center
Tue 11:02:29 AM 29.8258 -83.1558 338° Northwest 442 509 34,000 550 Climbing Jacksonville Center
Tue 11:03:29 AM 29.9403 -83.2114 337° Northwest 442 509 34,000  Level Jacksonville Center
Tue 11:04:29 AM 30.0531 -83.2622 339° North 437 503 34,000  Level Jacksonville Center
Tue 11:05:29 AM 30.1656 -83.3153 338° Northwest 437 503 34,000  Level Jacksonville Center
Tue 11:06:29 AM 30.2803 -83.3689 338° Northwest 437 503 34,000  Level Jacksonville Center
Tue 11:07:29 AM 30.4033 -83.4225 339° North 432 497 34,000  Level Jacksonville Center
Tue 11:08:29 AM 30.5178 -83.4786 337° Northwest 432 497 34,000  Level Jacksonville Center
Tue 11:09:29 AM 30.6325 -83.5322 338° Northwest 432 497 34,000  Level Jacksonville Center
Tue 11:10:29 AM 30.7447 -83.5886 337° Northwest 432 497 34,000  Level Jacksonville Center
Tue 11:11:29 AM 30.8594 -83.6403 339° North 432 497 34,000  Level Jacksonville Center
Tue 11:13:57 AM 31.1286 -83.7697 338° Northwest 430 495 34,000  Level Atlanta Center
Tue 11:14:57 AM 31.2433 -83.8253 338° Northwest 435 501 34,000  Level Atlanta Center
Tue 11:15:57 AM 31.3583 -83.8808 338° Northwest 440 506 34,000  Level Atlanta Center
Tue 11:16:57 AM 31.4711 -83.9367 337° Northwest 435 501 34,000  Level Atlanta Center
Tue 11:17:57 AM 31.6006 -83.9803 344° North 440 506 34,000  Level Atlanta Center
Tue 11:18:57 AM 31.7194 -84.0072 349° North 435 501 34,000  Level Atlanta Center
Tue 11:19:57 AM 31.8425 -84.0317 350° North 435 501 34,000  Level Atlanta Center
Tue 11:20:57 AM 31.9617 -84.0583 349° North 435 501 34,000  Level Atlanta Center
Tue 11:21:57 AM 32.0806 -84.0831 350° North 429 494 34,000  Level Atlanta Center
Tue 11:22:57 AM 32.1953 -84.1100 349° North 429 494 34,000  Level Atlanta Center
Tue 11:23:57 AM 32.3122 -84.1347 350° North 424 488 34,000  Level Atlanta Center
Tue 11:24:57 AM 32.4292 -84.1619 349° North 429 494 34,000  Level Atlanta Center
Tue 11:25:57 AM 32.5458 -84.1867 350° North 429 494 34,000  Level Atlanta Center
Tue 11:26:57 AM 32.6628 -84.2139 349° North 429 494 34,000  Level Atlanta Center
Tue 11:27:57 AM 32.7756 -84.2389 349° North 429 494 34,000  Level Atlanta Center
Tue 11:28:57 AM 32.8797 -84.2664 347° North 424 488 34,000  Level Atlanta Center
Tue 11:29:57 AM 32.9944 -84.2914 350° North 424 488 34,000  Level Atlanta Center
Tue 11:30:57 AM 33.1197 -84.3217 349° North 424 488 34,000  Level Atlanta Center
Tue 11:31:57 AM 33.2367 -84.3467 350° North 419 482 34,000  Level Atlanta Center
Tue 11:32:57 AM 33.3514 -84.3744 349° North 419 482 34,000  Level Atlanta Center
Tue 11:33:57 AM 33.4661 -84.4000 349° North 419 482 34,000  Level Atlanta Center
Tue 11:34:57 AM 33.5850 -84.4278 349° North 424 488 34,000  Level Atlanta Center
Tue 11:35:57 AM 33.6975 -84.4533 349° North 424 488 34,000  Level Atlanta Center
Tue 11:36:57 AM 33.8164 -84.4814 349° North 424 488 34,000  Level Atlanta Center
Tue 11:37:57 AM 33.9289 -84.5094 348° North 429 494 34,000  Level Atlanta Center
Tue 11:38:57 AM 34.0478 -84.5428 347° North 429 494 34,000  Level Atlanta Center
Tue 11:39:57 AM 34.1667 -84.5661 351° North 429 494 34,000  Level Atlanta Center
Tue 11:40:57 AM 34.2794 -84.5919 349° North 427 491 34,000  Level Atlanta Center
Tue 11:41:57 AM 34.3919 -84.6203 348° North 416 479 34,000  Level Atlanta Center
Tue 11:42:57 AM 34.5044 -84.6489 348° North 409 471 34,000  Level Atlanta Center
Tue 11:43:57 AM 34.6169 -84.6722 350° North 409 471 34,000  Level Atlanta Center
Tue 11:44:57 AM 34.7275 -84.7086 345° North 414 476 34,000  Level Atlanta Center
Tue 11:45:57 AM 34.8400 -84.7347 349° North 414 476 34,000  Level Atlanta Center
Tue 11:46:57 AM 34.9525 -84.7636 348° North 414 476 34,000  Level Atlanta Center
Tue 11:47:57 AM 35.0650 -84.7900 349° North 414 476 34,000  Level Atlanta Center
Tue 11:48:57 AM 35.1797 -84.8189 348° North 414 476 34,000  Level Atlanta Center
Tue 11:49:57 AM 35.2922 -84.8481 348° North 414 476 34,000 -150 Level Atlanta Center
Tue 11:50:57 AM 35.4067 -84.8744 349° North 414 476 33,700 -1,300 Descending Atlanta Center
Tue 11:51:57 AM 35.5253 -84.9064 348° North 414 476 31,400 -1,850 Descending Atlanta Center
Tue 11:52:57 AM 35.6317 -84.9331 348° North 419 482 30,000 -700 Descending Atlanta Center
Tue 11:53:57 AM 35.7522 -84.9650 348° North 431 496 30,000  Level Atlanta Center
Tue 11:54:57 AM 35.8753 -84.9922 350° North 436 502 30,000  Level Atlanta Center
Tue 11:55:48 AM 35.9786 -85.0203 348° North 451 519 30,000  Level Indianapolis Center
Tue 11:56:50 AM 36.1003 -85.0500 349° North 445 512 30,000  Level Indianapolis Center
Tue 11:57:52 AM 36.2464 -85.0867 349° North 444 511 30,000  Level Indianapolis Center
Tue 11:58:54 AM 36.3678 -85.1186 348° North 446 513 30,000  Level Indianapolis Center
Tue 11:59:56 AM 36.4894 -85.1500 348° North 446 513 30,000  Level Indianapolis Center
Tue 12:00:58 PM 36.6103 -85.1817 348° North 444 511 30,000  Level Indianapolis Center
Tue 12:01:59 PM 36.7314 -85.2128 348° North 443 510 30,000  Level Indianapolis Center
Tue 12:03:01 PM 36.8508 -85.2436 348° North 441 507 30,000  Level Indianapolis Center
Tue 12:04:03 PM 36.9722 -85.2747 348° North 442 509 30,000  Level Indianapolis Center
Tue 12:05:05 PM 37.1044 -85.3103 348° North 448 516 30,000  Level Indianapolis Center
Tue 12:06:07 PM 37.2258 -85.3425 348° North 445 512 30,000  Level Indianapolis Center
Tue 12:07:08 PM 37.3675 -85.3792 348° North 442 509 30,000  Level Indianapolis Center
Tue 12:08:10 PM 37.4883 -85.4111 348° North 442 509 30,000  Level Indianapolis Center
Tue 12:09:12 PM 37.6086 -85.4453 347° North 442 509 30,000  Level Indianapolis Center
Tue 12:10:14 PM 37.7272 -85.4764 348° North 436 502 30,000  Level Indianapolis Center
Tue 12:11:16 PM 37.8425 -85.5075 348° North 428 493 30,000  Level Indianapolis Center
Tue 12:12:17 PM 37.9603 -85.5386 348° North 430 495 30,000  Level Indianapolis Center
Tue 12:13:19 PM 38.0756 -85.5694 348° North 427 491 30,000  Level Indianapolis Center
Tue 12:14:21 PM 38.1931 -85.5939 351° North 423 487 30,000  Level Indianapolis Center
Tue 12:15:22 PM 38.3319 -85.6203 352° North 423 487 30,000  Level Indianapolis Center
Tue 12:16:24 PM 38.4511 -85.6436 351° North 430 495 30,000  Level Indianapolis Center
Tue 12:17:26 PM 38.5681 -85.6669 351° North 427 491 30,000  Level Indianapolis Center
Tue 12:18:27 PM 38.6903 -85.6906 351° North 427 491 30,000  Level Indianapolis Center
Tue 12:19:29 PM 38.8083 -85.7128 352° North 430 495 30,000  Level Indianapolis Center
Tue 12:20:31 PM 38.9264 -85.7358 351° North 431 496 30,000  Level Indianapolis Center
Tue 12:21:33 PM 39.0422 -85.7592 351° North 426 490 30,000  Level Indianapolis Center
Tue 12:22:34 PM 39.1589 -85.7828 351° North 426 490 30,000  Level Indianapolis Center
Tue 12:23:36 PM 39.2736 -85.8044 352° North 421 484 30,000  Level Indianapolis Center
Tue 12:24:38 PM 39.4103 -85.8317 351° North 418 481 30,000  Level Indianapolis Center
Tue 12:25:40 PM 39.5231 -85.8544 351° North 414 476 30,000 -244 Level Indianapolis Center
Tue 12:26:41 PM 39.6383 -85.8767 352° North 420 483 29,500 -585 Descending Indianapolis Center
Tue 12:27:43 PM 39.7558 -85.9008 351° North 431 496 28,800 -726 Descending Indianapolis Center
Tue 12:28:45 PM 39.8711 -85.9228 352° North 428 493 28,000 -823 Descending Indianapolis Center
Tue 12:29:47 PM 40.0056 -85.9514 351° North 415 478 27,100 -1,073 Descending Indianapolis Center
Tue 12:30:48 PM 40.1158 -85.9731 351° North 406 467 25,800 -2,075 Descending Indianapolis Center
Tue 12:31:34 PM 40.2031 -85.9897 352° North 400 460 23,400 -2,778 Descending Chicago Center
Tue 12:32:36 PM 40.3019 -86.0308 342° North 377 434 20,800 -1,645 Descending Chicago Center
Tue 12:33:38 PM 40.3956 -86.0803 338° Northwest 367 422 20,000 -387 Descending Chicago Center
Tue 12:34:40 PM 40.4861 -86.1278 338° Northwest 354 407 20,000 -242 Level Chicago Center
Tue 12:35:42 PM 40.5772 -86.1764 338° Northwest 357 411 19,500 -871 Descending Chicago Center
Tue 12:36:44 PM 40.6850 -86.2333 338° Northwest 350 403 18,200 -1,790 Descending Chicago Center
Tue 12:37:46 PM 40.7756 -86.2836 337° Northwest 343 395 15,800 -2,274 Descending Chicago Center
Tue 12:38:48 PM 40.8614 -86.3303 338° Northwest 335 386 13,500 -2,129 Descending Chicago Center
Tue 12:39:50 PM 40.9453 -86.3744 338° Northwest 326 375 11,400 -1,171 Descending Chicago Center
Tue 12:40:51 PM 41.0294 -86.4217 337° Northwest 329 379 11,100 -146 Descending Chicago Center
Tue 12:41:53 PM 41.0950 -86.5011 318° Northwest 321 369 11,100 -484 Level Chicago Center
Tue 12:42:55 PM 41.1522 -86.5892 311° West 315 362 10,100 -484 Descending Chicago Center
Tue 12:43:57 PM 41.2092 -86.6792 310° West 317 365 10,100 -48 Level Chicago Center
Tue 12:44:59 PM 41.2692 -86.7731 310° West 311 358 10,000 -726 Descending Chicago Center
Tue 12:46:01 PM 41.3181 -86.8492 311° West 278 320 8,600 -1,306 Descending Chicago Center
Tue 12:47:03 PM 41.3775 -86.9419 311° West 277 319 7,300 -871 Descending Chicago Center
Tue 12:48:05 PM 41.4267 -87.0178 311° West 275 316 6,800 -488 Descending Chicago Center
Tue 12:49:06 PM 41.4744 -87.0942 310° West 271 312 6,300 -732 Descending Chicago Center
Tue 12:50:08 PM 41.5125 -87.1781 301° West 268 308 5,300 -1,104 Descending Chicago Center
Tue 12:51:11 PM 41.5467 -87.2636 298° West 265 305 4,000 -629 Descending Chicago Center
Tue 12:52:12 PM 41.5819 -87.3647 295° West 255 293 4,000 -49 Level Chicago Center
Tue 12:53:14 PM 41.6133 -87.4475 297° West 254 292 3,900  Descending Chicago Center
Tue 12:54:16 PM 41.6403 -87.5194 297° West 239 275 4,000 -49 Climbing Chicago Center
Tue 12:55:17 PM 41.6658 -87.5892 296° West 223 257 3,800 -634 Descending Chicago Center
Tue 12:56:19 PM 41.7075 -87.6419 317° Northwest 215 247 2,700 -823 Descending Chicago Center
Tue 12:57:21 PM 41.7569 -87.6689 338° Northwest 196 226 2,100 -484 Descending Chicago Center
Tue 12:58:23 PM 41.8044 -87.6806 350° North 188 216 1,700 -532 Descending Chicago Center
Tue 12:59:25 PM 41.8069 -87.7244 274° West 152 175 1,000 -677 Descending Chicago Center
Tue 01:01:00 PM 41.7833 -87.7500 14° North  Level FlightAware Approximate

Login

Don't have an account? Register now (free) for customized features, flight alerts, and more!